sensor_id;sensor_type;location;lat;lon;timestamp;temperature;humidity
21944;DHT22;11136;48.778;9.126;2023-04-20T00:01:45;7.90;93.70
21944;DHT22;11136;48.778;9.126;2023-04-20T00:04:11;7.90;93.70
21944;DHT22;11136;48.778;9.126;2023-04-20T00:06:37;7.90;93.80
21944;DHT22;11136;48.778;9.126;2023-04-20T00:09:02;7.80;93.80
21944;DHT22;11136;48.778;9.126;2023-04-20T00:11:29;7.80;93.90
21944;DHT22;11136;48.778;9.126;2023-04-20T00:13:55;7.80;94.00
21944;DHT22;11136;48.778;9.126;2023-04-20T00:16:21;7.80;94.00
21944;DHT22;11136;48.778;9.126;2023-04-20T00:18:47;7.80;94.00
21944;DHT22;11136;48.778;9.126;2023-04-20T00:21:12;7.70;94.00
21944;DHT22;11136;48.778;9.126;2023-04-20T00:23:38;7.70;93.90
21944;DHT22;11136;48.778;9.126;2023-04-20T00:26:04;7.70;94.00
21944;DHT22;11136;48.778;9.126;2023-04-20T00:28:30;7.60;94.00
21944;DHT22;11136;48.778;9.126;2023-04-20T00:30:56;7.60;94.10
21944;DHT22;11136;48.778;9.126;2023-04-20T00:33:21;7.60;94.10
21944;DHT22;11136;48.778;9.126;2023-04-20T00:35:47;7.50;94.20
21944;DHT22;11136;48.778;9.126;2023-04-20T00:38:13;7.50;94.30
21944;DHT22;11136;48.778;9.126;2023-04-20T00:40:38;7.50;94.30
21944;DHT22;11136;48.778;9.126;2023-04-20T00:43:11;7.50;94.40
21944;DHT22;11136;48.778;9.126;2023-04-20T00:45:37;7.50;94.40
21944;DHT22;11136;48.778;9.126;2023-04-20T00:48:04;7.50;94.50
21944;DHT22;11136;48.778;9.126;2023-04-20T00:50:30;7.40;94.50
21944;DHT22;11136;48.778;9.126;2023-04-20T00:52:56;7.40;94.50
21944;DHT22;11136;48.778;9.126;2023-04-20T00:55:22;7.40;94.60
21944;DHT22;11136;48.778;9.126;2023-04-20T00:57:48;7.40;94.60
21944;DHT22;11136;48.778;9.126;2023-04-20T01:00:14;7.30;94.60
21944;DHT22;11136;48.778;9.126;2023-04-20T01:02:40;7.30;94.60
21944;DHT22;11136;48.778;9.126;2023-04-20T01:05:05;7.30;94.70
21944;DHT22;11136;48.778;9.126;2023-04-20T01:07:31;7.30;94.80
21944;DHT22;11136;48.778;9.126;2023-04-20T01:09:57;7.20;94.80
21944;DHT22;11136;48.778;9.126;2023-04-20T01:12:22;7.20;94.80
21944;DHT22;11136;48.778;9.126;2023-04-20T01:14:48;7.20;94.90
21944;DHT22;11136;48.778;9.126;2023-04-20T01:17:13;7.10;94.80
21944;DHT22;11136;48.778;9.126;2023-04-20T01:19:40;7.10;94.90
21944;DHT22;11136;48.778;9.126;2023-04-20T01:22:06;7.10;94.90
21944;DHT22;11136;48.778;9.126;2023-04-20T01:24:32;7.00;94.90
21944;DHT22;11136;48.778;9.126;2023-04-20T01:26:59;7.00;95.00
21944;DHT22;11136;48.778;9.126;2023-04-20T01:29:26;7.00;95.10
21944;DHT22;11136;48.778;9.126;2023-04-20T01:31:51;7.00;95.10
21944;DHT22;11136;48.778;9.126;2023-04-20T01:34:17;7.00;95.10
21944;DHT22;11136;48.778;9.126;2023-04-20T01:36:43;6.90;95.10
21944;DHT22;11136;48.778;9.126;2023-04-20T01:39:10;6.90;95.10
21944;DHT22;11136;48.778;9.126;2023-04-20T01:41:36;6.90;95.10
21944;DHT22;11136;48.778;9.126;2023-04-20T01:44:02;6.90;95.20
21944;DHT22;11136;48.778;9.126;2023-04-20T01:46:27;6.90;95.20
21944;DHT22;11136;48.778;9.126;2023-04-20T01:48:53;7.00;95.30
21944;DHT22;11136;48.778;9.126;2023-04-20T01:51:20;6.80;95.20
21944;DHT22;11136;48.778;9.126;2023-04-20T01:53:45;6.80;95.30
21944;DHT22;11136;48.778;9.126;2023-04-20T01:56:11;6.80;95.40
21944;DHT22;11136;48.778;9.126;2023-04-20T01:58:36;6.70;95.30
21944;DHT22;11136;48.778;9.126;2023-04-20T02:01:02;6.70;95.40
21944;DHT22;11136;48.778;9.126;2023-04-20T02:03:27;6.70;95.40
21944;DHT22;11136;48.778;9.126;2023-04-20T02:05:53;6.70;95.40
21944;DHT22;11136;48.778;9.126;2023-04-20T02:08:19;6.70;95.40
21944;DHT22;11136;48.778;9.126;2023-04-20T02:10:45;6.60;95.50
21944;DHT22;11136;48.778;9.126;2023-04-20T02:13:11;6.60;95.50
21944;DHT22;11136;48.778;9.126;2023-04-20T02:15:36;6.50;95.50
21944;DHT22;11136;48.778;9.126;2023-04-20T02:18:02;6.50;95.50
21944;DHT22;11136;48.778;9.126;2023-04-20T02:20:28;6.70;95.60
21944;DHT22;11136;48.778;9.126;2023-04-20T02:22:53;6.50;95.50
21944;DHT22;11136;48.778;9.126;2023-04-20T02:25:19;6.50;95.60
21944;DHT22;11136;48.778;9.126;2023-04-20T02:27:45;6.40;95.60
21944;DHT22;11136;48.778;9.126;2023-04-20T02:30:11;6.40;95.60
21944;DHT22;11136;48.778;9.126;2023-04-20T02:32:37;6.40;95.60
21944;DHT22;11136;48.778;9.126;2023-04-20T02:35:03;6.40;95.70
21944;DHT22;11136;48.778;9.126;2023-04-20T02:37:29;6.40;95.70
21944;DHT22;11136;48.778;9.126;2023-04-20T02:39:55;6.40;95.70
21944;DHT22;11136;48.778;9.126;2023-04-20T02:42:20;6.30;95.70
21944;DHT22;11136;48.778;9.126;2023-04-20T02:44:46;6.30;95.80
21944;DHT22;11136;48.778;9.126;2023-04-20T02:47:12;6.30;95.80
21944;DHT22;11136;48.778;9.126;2023-04-20T02:49:37;6.30;95.70
21944;DHT22;11136;48.778;9.126;2023-04-20T02:52:04;6.30;95.80
21944;DHT22;11136;48.778;9.126;2023-04-20T02:54:29;6.20;95.70
21944;DHT22;11136;48.778;9.126;2023-04-20T02:56:55;6.20;95.80
21944;DHT22;11136;48.778;9.126;2023-04-20T02:59:21;6.20;95.80
21944;DHT22;11136;48.778;9.126;2023-04-20T03:01:48;6.20;95.90
21944;DHT22;11136;48.778;9.126;2023-04-20T03:04:13;6.20;95.90
21944;DHT22;11136;48.778;9.126;2023-04-20T03:06:39;6.10;95.80
21944;DHT22;11136;48.778;9.126;2023-04-20T03:09:05;6.10;95.90
21944;DHT22;11136;48.778;9.126;2023-04-20T03:11:31;6.10;95.90
21944;DHT22;11136;48.778;9.126;2023-04-20T03:13:57;6.00;96.00
21944;DHT22;11136;48.778;9.126;2023-04-20T03:16:23;6.00;96.00
21944;DHT22;11136;48.778;9.126;2023-04-20T03:18:48;6.00;96.00
21944;DHT22;11136;48.778;9.126;2023-04-20T03:21:14;6.00;96.00
21944;DHT22;11136;48.778;9.126;2023-04-20T03:23:40;6.00;96.10
21944;DHT22;11136;48.778;9.126;2023-04-20T03:26:06;5.90;96.10
21944;DHT22;11136;48.778;9.126;2023-04-20T03:28:33;5.90;96.10
21944;DHT22;11136;48.778;9.126;2023-04-20T03:30:59;5.90;96.20
21944;DHT22;11136;48.778;9.126;2023-04-20T03:33:25;5.90;96.20
21944;DHT22;11136;48.778;9.126;2023-04-20T03:35:52;5.80;96.10
21944;DHT22;11136;48.778;9.126;2023-04-20T03:38:18;5.80;96.20
21944;DHT22;11136;48.778;9.126;2023-04-20T03:40:43;5.80;96.30
21944;DHT22;11136;48.778;9.126;2023-04-20T03:43:09;5.80;96.30
21944;DHT22;11136;48.778;9.126;2023-04-20T03:45:36;5.80;96.40
21944;DHT22;11136;48.778;9.126;2023-04-20T03:48:02;5.70;96.40
21944;DHT22;11136;48.778;9.126;2023-04-20T03:50:28;5.70;96.40
21944;DHT22;11136;48.778;9.126;2023-04-20T03:52:53;5.70;96.40
21944;DHT22;11136;48.778;9.126;2023-04-20T03:55:19;5.70;96.40
21944;DHT22;11136;48.778;9.126;2023-04-20T03:57:44;5.70;96.40
21944;DHT22;11136;48.778;9.126;2023-04-20T04:00:10;5.70;96.50
21944;DHT22;11136;48.778;9.126;2023-04-20T04:02:37;5.70;96.50
21944;DHT22;11136;48.778;9.126;2023-04-20T04:05:02;5.70;96.50
21944;DHT22;11136;48.778;9.126;2023-04-20T04:07:28;5.60;96.50
21944;DHT22;11136;48.778;9.126;2023-04-20T04:09:53;5.60;96.50
21944;DHT22;11136;48.778;9.126;2023-04-20T04:12:19;5.60;96.50
21944;DHT22;11136;48.778;9.126;2023-04-20T04:14:45;5.60;96.60
21944;DHT22;11136;48.778;9.126;2023-04-20T04:17:13;5.50;96.60
21944;DHT22;11136;48.778;9.126;2023-04-20T04:19:41;5.50;96.70
21944;DHT22;11136;48.778;9.126;2023-04-20T04:22:08;5.50;96.70
21944;DHT22;11136;48.778;9.126;2023-04-20T04:24:33;5.50;96.70
21944;DHT22;11136;48.778;9.126;2023-04-20T04:27:00;5.50;96.70
21944;DHT22;11136;48.778;9.126;2023-04-20T04:29:29;5.50;96.70
21944;DHT22;11136;48.778;9.126;2023-04-20T04:31:56;5.50;96.80
21944;DHT22;11136;48.778;9.126;2023-04-20T04:34:22;5.40;96.80
21944;DHT22;11136;48.778;9.126;2023-04-20T04:36:49;5.50;96.80
21944;DHT22;11136;48.778;9.126;2023-04-20T04:39:15;5.40;96.80
21944;DHT22;11136;48.778;9.126;2023-04-20T04:41:41;5.40;96.80
21944;DHT22;11136;48.778;9.126;2023-04-20T04:44:06;5.40;96.90
21944;DHT22;11136;48.778;9.126;2023-04-20T04:46:33;5.40;96.90
21944;DHT22;11136;48.778;9.126;2023-04-20T04:49:01;5.40;97.00
21944;DHT22;11136;48.778;9.126;2023-04-20T04:51:27;5.40;97.00
21944;DHT22;11136;48.778;9.126;2023-04-20T04:53:52;5.30;97.00
21944;DHT22;11136;48.778;9.126;2023-04-20T04:56:18;5.30;97.10
21944;DHT22;11136;48.778;9.126;2023-04-20T04:58:45;5.30;97.10
21944;DHT22;11136;48.778;9.126;2023-04-20T05:01:10;5.30;97.20
21944;DHT22;11136;48.778;9.126;2023-04-20T05:03:36;5.30;97.20
21944;DHT22;11136;48.778;9.126;2023-04-20T05:06:02;5.30;97.30
21944;DHT22;11136;48.778;9.126;2023-04-20T05:08:28;5.30;97.40
21944;DHT22;11136;48.778;9.126;2023-04-20T05:10:53;5.30;97.50
21944;DHT22;11136;48.778;9.126;2023-04-20T05:13:19;5.30;97.60
21944;DHT22;11136;48.778;9.126;2023-04-20T05:15:44;5.30;97.70
21944;DHT22;11136;48.778;9.126;2023-04-20T05:18:10;5.30;97.80
21944;DHT22;11136;48.778;9.126;2023-04-20T05:20:36;5.30;97.80
21944;DHT22;11136;48.778;9.126;2023-04-20T05:23:01;5.40;97.90
21944;DHT22;11136;48.778;9.126;2023-04-20T05:25:27;5.40;98.40
21944;DHT22;11136;48.778;9.126;2023-04-20T05:27:52;5.40;98.10
21944;DHT22;11136;48.778;9.126;2023-04-20T05:30:18;5.40;98.20
21944;DHT22;11136;48.778;9.126;2023-04-20T05:32:44;5.60;98.30
21944;DHT22;11136;48.778;9.126;2023-04-20T05:35:09;5.50;98.40
21944;DHT22;11136;48.778;9.126;2023-04-20T05:37:36;5.40;98.50
21944;DHT22;11136;48.778;9.126;2023-04-20T05:40:02;5.50;98.60
21944;DHT22;11136;48.778;9.126;2023-04-20T05:42:28;5.50;98.70
21944;DHT22;11136;48.778;9.126;2023-04-20T05:44:53;5.50;98.80
21944;DHT22;11136;48.778;9.126;2023-04-20T05:47:19;5.60;98.90
21944;DHT22;11136;48.778;9.126;2023-04-20T05:49:44;5.60;98.90
21944;DHT22;11136;48.778;9.126;2023-04-20T05:52:10;5.60;98.90
21944;DHT22;11136;48.778;9.126;2023-04-20T05:54:36;5.70;99.00
21944;DHT22;11136;48.778;9.126;2023-04-20T05:57:01;5.70;99.10
21944;DHT22;11136;48.778;9.126;2023-04-20T05:59:29;5.70;99.20
21944;DHT22;11136;48.778;9.126;2023-04-20T06:01:55;5.70;99.20
21944;DHT22;11136;48.778;9.126;2023-04-20T06:04:21;5.80;99.40
21944;DHT22;11136;48.778;9.126;2023-04-20T06:06:46;5.80;99.50
21944;DHT22;11136;48.778;9.126;2023-04-20T06:09:12;5.90;99.70
21944;DHT22;11136;48.778;9.126;2023-04-20T06:11:38;5.90;99.70
21944;DHT22;11136;48.778;9.126;2023-04-20T06:14:04;6.00;99.90
21944;DHT22;11136;48.778;9.126;2023-04-20T06:16:30;6.00;99.90
21944;DHT22;11136;48.778;9.126;2023-04-20T06:18:55;6.10;99.90
21944;DHT22;11136;48.778;9.126;2023-04-20T06:21:21;6.20;99.90
21944;DHT22;11136;48.778;9.126;2023-04-20T06:23:48;6.20;99.90
21944;DHT22;11136;48.778;9.126;2023-04-20T06:26:14;6.20;99.90
21944;DHT22;11136;48.778;9.126;2023-04-20T06:28:40;6.30;99.90
21944;DHT22;11136;48.778;9.126;2023-04-20T06:31:06;6.30;99.90
21944;DHT22;11136;48.778;9.126;2023-04-20T06:33:31;6.40;99.90
21944;DHT22;11136;48.778;9.126;2023-04-20T06:35:57;6.50;99.90
21944;DHT22;11136;48.778;9.126;2023-04-20T06:38:23;6.50;99.90
21944;DHT22;11136;48.778;9.126;2023-04-20T06:40:50;6.60;99.90
21944;DHT22;11136;48.778;9.126;2023-04-20T06:43:15;6.60;99.90
21944;DHT22;11136;48.778;9.126;2023-04-20T06:45:41;6.70;99.90
21944;DHT22;11136;48.778;9.126;2023-04-20T06:48:06;6.70;99.90
21944;DHT22;11136;48.778;9.126;2023-04-20T06:50:32;6.80;99.90
21944;DHT22;11136;48.778;9.126;2023-04-20T06:52:58;6.80;99.90
21944;DHT22;11136;48.778;9.126;2023-04-20T06:55:24;6.90;99.90
21944;DHT22;11136;48.778;9.126;2023-04-20T06:57:49;7.00;99.90
21944;DHT22;11136;48.778;9.126;2023-04-20T07:00:16;7.10;99.90
21944;DHT22;11136;48.778;9.126;2023-04-20T07:02:46;7.10;99.90
21944;DHT22;11136;48.778;9.126;2023-04-20T07:05:13;7.20;99.90
21944;DHT22;11136;48.778;9.126;2023-04-20T07:07:39;7.30;99.90
21944;DHT22;11136;48.778;9.126;2023-04-20T07:10:06;7.50;99.90
21944;DHT22;11136;48.778;9.126;2023-04-20T07:12:34;7.50;99.90
21944;DHT22;11136;48.778;9.126;2023-04-20T07:15:02;7.60;99.90
21944;DHT22;11136;48.778;9.126;2023-04-20T07:17:28;7.60;99.90
21944;DHT22;11136;48.778;9.126;2023-04-20T07:19:54;7.70;99.90
21944;DHT22;11136;48.778;9.126;2023-04-20T07:22:21;7.70;99.90
21944;DHT22;11136;48.778;9.126;2023-04-20T07:24:46;7.80;99.90
21944;DHT22;11136;48.778;9.126;2023-04-20T07:27:12;7.80;99.90
21944;DHT22;11136;48.778;9.126;2023-04-20T07:29:38;7.90;99.90
21944;DHT22;11136;48.778;9.126;2023-04-20T07:32:04;8.00;99.90
21944;DHT22;11136;48.778;9.126;2023-04-20T07:34:29;8.00;99.90
21944;DHT22;11136;48.778;9.126;2023-04-20T07:36:55;8.00;99.90
21944;DHT22;11136;48.778;9.126;2023-04-20T07:39:21;8.10;99.90
21944;DHT22;11136;48.778;9.126;2023-04-20T07:41:46;8.20;99.90
21944;DHT22;11136;48.778;9.126;2023-04-20T07:44:12;8.20;99.90
21944;DHT22;11136;48.778;9.126;2023-04-20T07:46:38;8.40;99.90
21944;DHT22;11136;48.778;9.126;2023-04-20T07:49:04;8.40;99.90
21944;DHT22;11136;48.778;9.126;2023-04-20T07:51:29;8.60;99.90
21944;DHT22;11136;48.778;9.126;2023-04-20T07:53:56;8.70;99.90
21944;DHT22;11136;48.778;9.126;2023-04-20T07:56:22;8.80;99.80
21944;DHT22;11136;48.778;9.126;2023-04-20T07:58:47;8.90;99.70
21944;DHT22;11136;48.778;9.126;2023-04-20T08:01:13;9.00;99.60
21944;DHT22;11136;48.778;9.126;2023-04-20T08:03:39;9.00;99.50
21944;DHT22;11136;48.778;9.126;2023-04-20T08:06:05;9.00;99.30
21944;DHT22;11136;48.778;9.126;2023-04-20T08:08:31;9.10;99.10
21944;DHT22;11136;48.778;9.126;2023-04-20T08:10:57;9.10;99.10
21944;DHT22;11136;48.778;9.126;2023-04-20T08:13:23;9.20;99.10
21944;DHT22;11136;48.778;9.126;2023-04-20T08:15:49;9.30;98.90
21944;DHT22;11136;48.778;9.126;2023-04-20T08:18:14;9.30;98.80
21944;DHT22;11136;48.778;9.126;2023-04-20T08:20:40;9.40;98.70
21944;DHT22;11136;48.778;9.126;2023-04-20T08:23:05;9.40;98.60
21944;DHT22;11136;48.778;9.126;2023-04-20T08:25:31;9.50;98.50
21944;DHT22;11136;48.778;9.126;2023-04-20T08:27:57;9.40;98.30
21944;DHT22;11136;48.778;9.126;2023-04-20T08:30:23;9.40;98.20
21944;DHT22;11136;48.778;9.126;2023-04-20T08:32:48;9.40;98.10
21944;DHT22;11136;48.778;9.126;2023-04-20T08:35:14;9.40;98.00
21944;DHT22;11136;48.778;9.126;2023-04-20T08:37:39;9.30;97.90
21944;DHT22;11136;48.778;9.126;2023-04-20T08:40:07;9.30;97.80
21944;DHT22;11136;48.778;9.126;2023-04-20T08:42:33;9.20;97.80
21944;DHT22;11136;48.778;9.126;2023-04-20T08:44:59;9.20;97.80
21944;DHT22;11136;48.778;9.126;2023-04-20T08:47:24;9.10;98.10
21944;DHT22;11136;48.778;9.126;2023-04-20T08:49:52;9.10;97.80
21944;DHT22;11136;48.778;9.126;2023-04-20T08:52:21;9.10;97.90
21944;DHT22;11136;48.778;9.126;2023-04-20T08:54:47;9.00;98.00
21944;DHT22;11136;48.778;9.126;2023-04-20T08:57:13;9.00;98.00
21944;DHT22;11136;48.778;9.126;2023-04-20T08:59:39;9.00;98.20
21944;DHT22;11136;48.778;9.126;2023-04-20T09:02:12;9.00;98.30
21944;DHT22;11136;48.778;9.126;2023-04-20T09:04:38;9.00;98.30
21944;DHT22;11136;48.778;9.126;2023-04-20T09:07:05;9.00;98.40
21944;DHT22;11136;48.778;9.126;2023-04-20T09:09:31;9.00;98.50
21944;DHT22;11136;48.778;9.126;2023-04-20T09:12:05;9.00;98.60
21944;DHT22;11136;48.778;9.126;2023-04-20T09:14:45;9.00;98.80
21944;DHT22;11136;48.778;9.126;2023-04-20T09:17:13;9.00;98.80
21944;DHT22;11136;48.778;9.126;2023-04-20T09:19:42;9.00;98.80
21944;DHT22;11136;48.778;9.126;2023-04-20T09:22:07;9.00;98.90
21944;DHT22;11136;48.778;9.126;2023-04-20T09:24:35;9.00;98.90
21944;DHT22;11136;48.778;9.126;2023-04-20T09:27:01;9.00;99.00
21944;DHT22;11136;48.778;9.126;2023-04-20T09:29:27;9.10;99.10
21944;DHT22;11136;48.778;9.126;2023-04-20T09:31:54;9.10;99.10
21944;DHT22;11136;48.778;9.126;2023-04-20T09:34:22;9.10;99.10
21944;DHT22;11136;48.778;9.126;2023-04-20T09:36:49;9.10;99.10
21944;DHT22;11136;48.778;9.126;2023-04-20T09:39:17;9.10;99.10
21944;DHT22;11136;48.778;9.126;2023-04-20T09:41:44;9.10;99.10
21944;DHT22;11136;48.778;9.126;2023-04-20T09:44:11;9.10;99.10
21944;DHT22;11136;48.778;9.126;2023-04-20T09:46:39;9.10;99.20
21944;DHT22;11136;48.778;9.126;2023-04-20T09:49:07;9.10;99.30
21944;DHT22;11136;48.778;9.126;2023-04-20T09:51:38;9.10;99.30
21944;DHT22;11136;48.778;9.126;2023-04-20T09:54:06;9.10;99.20
21944;DHT22;11136;48.778;9.126;2023-04-20T09:56:33;9.00;99.20
21944;DHT22;11136;48.778;9.126;2023-04-20T09:59:00;9.00;99.20
21944;DHT22;11136;48.778;9.126;2023-04-20T10:01:29;9.00;99.20
21944;DHT22;11136;48.778;9.126;2023-04-20T10:03:56;9.10;99.20
21944;DHT22;11136;48.778;9.126;2023-04-20T10:06:24;9.10;99.30
21944;DHT22;11136;48.778;9.126;2023-04-20T10:08:52;9.00;99.30
21944;DHT22;11136;48.778;9.126;2023-04-20T10:13:50;9.10;99.40
21944;DHT22;11136;48.778;9.126;2023-04-20T10:16:17;9.10;99.40
21944;DHT22;11136;48.778;9.126;2023-04-20T10:18:42;9.10;99.40
21944;DHT22;11136;48.778;9.126;2023-04-20T10:21:09;9.10;99.40
21944;DHT22;11136;48.778;9.126;2023-04-20T10:23:34;9.10;99.50
21944;DHT22;11136;48.778;9.126;2023-04-20T10:26:11;9.10;99.60
21944;DHT22;11136;48.778;9.126;2023-04-20T10:28:40;9.10;99.60
21944;DHT22;11136;48.778;9.126;2023-04-20T10:31:07;9.10;99.70
21944;DHT22;11136;48.778;9.126;2023-04-20T10:33:33;9.10;99.70
21944;DHT22;11136;48.778;9.126;2023-04-20T10:35:58;9.20;99.80
21944;DHT22;11136;48.778;9.126;2023-04-20T10:38:31;9.20;99.90
21944;DHT22;11136;48.778;9.126;2023-04-20T10:41:08;9.20;99.90
21944;DHT22;11136;48.778;9.126;2023-04-20T10:43:33;9.20;99.90
21944;DHT22;11136;48.778;9.126;2023-04-20T10:46:17;9.20;99.90
21944;DHT22;11136;48.778;9.126;2023-04-20T10:49:03;9.30;99.90
21944;DHT22;11136;48.778;9.126;2023-04-20T10:51:29;9.30;99.90
21944;DHT22;11136;48.778;9.126;2023-04-20T10:54:01;9.30;99.90
21944;DHT22;11136;48.778;9.126;2023-04-20T10:56:36;9.40;99.90
21944;DHT22;11136;48.778;9.126;2023-04-20T10:59:06;9.50;99.90
21944;DHT22;11136;48.778;9.126;2023-04-20T11:01:32;9.50;99.90
21944;DHT22;11136;48.778;9.126;2023-04-20T11:03:58;9.50;99.90
21944;DHT22;11136;48.778;9.126;2023-04-20T11:06:25;9.60;99.90
21944;DHT22;11136;48.778;9.126;2023-04-20T11:08:50;9.60;99.90
21944;DHT22;11136;48.778;9.126;2023-04-20T11:11:24;9.50;99.90
21944;DHT22;11136;48.778;9.126;2023-04-20T11:13:52;9.50;99.90
21944;DHT22;11136;48.778;9.126;2023-04-20T11:16:18;9.60;99.90
21944;DHT22;11136;48.778;9.126;2023-04-20T11:18:51;9.50;99.90
21944;DHT22;11136;48.778;9.126;2023-04-20T11:21:18;9.60;99.90
21944;DHT22;11136;48.778;9.126;2023-04-20T11:23:43;9.60;99.90
21944;DHT22;11136;48.778;9.126;2023-04-20T11:26:09;9.60;99.90
21944;DHT22;11136;48.778;9.126;2023-04-20T11:28:36;9.60;99.90
21944;DHT22;11136;48.778;9.126;2023-04-20T11:31:01;9.60;99.90
21944;DHT22;11136;48.778;9.126;2023-04-20T11:33:28;9.70;99.90
21944;DHT22;11136;48.778;9.126;2023-04-20T11:35:56;9.70;99.90
21944;DHT22;11136;48.778;9.126;2023-04-20T11:38:29;9.60;99.90
21944;DHT22;11136;48.778;9.126;2023-04-20T11:40:55;9.70;99.90
21944;DHT22;11136;48.778;9.126;2023-04-20T11:43:22;9.70;99.90
21944;DHT22;11136;48.778;9.126;2023-04-20T11:45:47;9.60;99.90
21944;DHT22;11136;48.778;9.126;2023-04-20T11:48:13;9.70;99.90
21944;DHT22;11136;48.778;9.126;2023-04-20T11:50:39;9.60;99.90
21944;DHT22;11136;48.778;9.126;2023-04-20T11:53:05;9.60;99.90
21944;DHT22;11136;48.778;9.126;2023-04-20T11:55:31;9.60;99.90
21944;DHT22;11136;48.778;9.126;2023-04-20T11:57:57;9.60;99.90
21944;DHT22;11136;48.778;9.126;2023-04-20T12:00:23;9.50;99.90
21944;DHT22;11136;48.778;9.126;2023-04-20T12:02:48;9.50;99.90
21944;DHT22;11136;48.778;9.126;2023-04-20T12:05:14;9.50;99.90
21944;DHT22;11136;48.778;9.126;2023-04-20T12:07:39;9.40;99.90
21944;DHT22;11136;48.778;9.126;2023-04-20T12:10:06;9.40;99.90
21944;DHT22;11136;48.778;9.126;2023-04-20T12:12:32;9.40;99.90
21944;DHT22;11136;48.778;9.126;2023-04-20T12:14:58;9.40;99.90
21944;DHT22;11136;48.778;9.126;2023-04-20T12:17:24;9.50;99.90
21944;DHT22;11136;48.778;9.126;2023-04-20T12:19:49;9.40;99.90
21944;DHT22;11136;48.778;9.126;2023-04-20T12:22:15;9.40;99.90
21944;DHT22;11136;48.778;9.126;2023-04-20T12:24:41;9.40;99.90
21944;DHT22;11136;48.778;9.126;2023-04-20T12:27:06;9.50;99.90
21944;DHT22;11136;48.778;9.126;2023-04-20T12:29:32;9.50;99.90
21944;DHT22;11136;48.778;9.126;2023-04-20T12:31:57;9.40;99.90
21944;DHT22;11136;48.778;9.126;2023-04-20T12:34:23;9.40;99.90
21944;DHT22;11136;48.778;9.126;2023-04-20T12:36:49;9.50;99.90
21944;DHT22;11136;48.778;9.126;2023-04-20T12:39:14;9.50;99.90
21944;DHT22;11136;48.778;9.126;2023-04-20T12:41:40;9.50;99.90
21944;DHT22;11136;48.778;9.126;2023-04-20T12:44:06;9.50;99.90
21944;DHT22;11136;48.778;9.126;2023-04-20T12:46:32;9.50;99.90
21944;DHT22;11136;48.778;9.126;2023-04-20T12:48:57;9.50;99.90
21944;DHT22;11136;48.778;9.126;2023-04-20T12:51:23;9.50;99.90
21944;DHT22;11136;48.778;9.126;2023-04-20T12:53:49;9.50;99.90
21944;DHT22;11136;48.778;9.126;2023-04-20T12:56:14;9.60;99.90
21944;DHT22;11136;48.778;9.126;2023-04-20T12:58:40;9.60;99.90
21944;DHT22;11136;48.778;9.126;2023-04-20T13:01:05;9.60;99.90
21944;DHT22;11136;48.778;9.126;2023-04-20T13:03:31;9.60;99.90
21944;DHT22;11136;48.778;9.126;2023-04-20T13:05:57;9.70;99.90
21944;DHT22;11136;48.778;9.126;2023-04-20T13:08:23;9.70;99.90
21944;DHT22;11136;48.778;9.126;2023-04-20T13:10:48;9.80;99.90
21944;DHT22;11136;48.778;9.126;2023-04-20T13:13:14;9.80;99.90
21944;DHT22;11136;48.778;9.126;2023-04-20T13:15:40;9.80;99.90
21944;DHT22;11136;48.778;9.126;2023-04-20T13:18:05;9.90;99.90
21944;DHT22;11136;48.778;9.126;2023-04-20T13:20:31;9.80;99.90
21944;DHT22;11136;48.778;9.126;2023-04-20T13:22:59;9.90;99.90
21944;DHT22;11136;48.778;9.126;2023-04-20T13:25:27;9.80;99.90
21944;DHT22;11136;48.778;9.126;2023-04-20T13:27:53;9.90;99.90
21944;DHT22;11136;48.778;9.126;2023-04-20T13:30:19;9.90;99.90
21944;DHT22;11136;48.778;9.126;2023-04-20T13:32:45;9.80;99.90
21944;DHT22;11136;48.778;9.126;2023-04-20T13:35:11;9.80;99.90
21944;DHT22;11136;48.778;9.126;2023-04-20T13:37:39;9.80;99.90
21944;DHT22;11136;48.778;9.126;2023-04-20T13:40:06;9.80;99.90
21944;DHT22;11136;48.778;9.126;2023-04-20T13:42:32;9.80;99.90
21944;DHT22;11136;48.778;9.126;2023-04-20T13:44:58;9.80;99.90
21944;DHT22;11136;48.778;9.126;2023-04-20T13:47:24;9.80;99.90
21944;DHT22;11136;48.778;9.126;2023-04-20T13:49:50;9.80;99.90
21944;DHT22;11136;48.778;9.126;2023-04-20T13:52:16;9.80;99.90
21944;DHT22;11136;48.778;9.126;2023-04-20T13:54:42;9.80;99.90
21944;DHT22;11136;48.778;9.126;2023-04-20T13:57:08;9.80;99.90
21944;DHT22;11136;48.778;9.126;2023-04-20T13:59:34;9.70;99.90
21944;DHT22;11136;48.778;9.126;2023-04-20T14:01:59;9.70;99.90
21944;DHT22;11136;48.778;9.126;2023-04-20T14:04:26;9.70;99.90
21944;DHT22;11136;48.778;9.126;2023-04-20T14:06:51;9.80;99.90
21944;DHT22;11136;48.778;9.126;2023-04-20T14:09:17;9.70;99.90
21944;DHT22;11136;48.778;9.126;2023-04-20T14:11:43;9.80;99.90
21944;DHT22;11136;48.778;9.126;2023-04-20T14:14:09;9.70;99.90
21944;DHT22;11136;48.778;9.126;2023-04-20T14:16:45;9.80;99.90
21944;DHT22;11136;48.778;9.126;2023-04-20T14:19:11;9.80;99.90
21944;DHT22;11136;48.778;9.126;2023-04-20T14:21:37;9.80;99.90
21944;DHT22;11136;48.778;9.126;2023-04-20T14:24:03;9.80;99.90
21944;DHT22;11136;48.778;9.126;2023-04-20T14:26:28;9.80;99.90
21944;DHT22;11136;48.778;9.126;2023-04-20T14:28:54;9.80;99.90
21944;DHT22;11136;48.778;9.126;2023-04-20T14:31:19;9.80;99.90
21944;DHT22;11136;48.778;9.126;2023-04-20T14:33:45;9.80;99.90
21944;DHT22;11136;48.778;9.126;2023-04-20T14:36:11;9.80;99.90
21944;DHT22;11136;48.778;9.126;2023-04-20T14:38:37;9.80;99.90
21944;DHT22;11136;48.778;9.126;2023-04-20T14:41:03;9.80;99.90
21944;DHT22;11136;48.778;9.126;2023-04-20T14:43:28;9.80;99.90
21944;DHT22;11136;48.778;9.126;2023-04-20T14:45:54;9.80;99.90
21944;DHT22;11136;48.778;9.126;2023-04-20T14:48:20;9.80;99.90
21944;DHT22;11136;48.778;9.126;2023-04-20T14:50:45;9.80;99.90
21944;DHT22;11136;48.778;9.126;2023-04-20T14:53:11;9.80;99.90
21944;DHT22;11136;48.778;9.126;2023-04-20T14:55:36;9.80;99.90
21944;DHT22;11136;48.778;9.126;2023-04-20T14:58:02;9.80;99.90
21944;DHT22;11136;48.778;9.126;2023-04-20T15:00:28;9.80;99.90
21944;DHT22;11136;48.778;9.126;2023-04-20T15:02:54;9.80;99.90
21944;DHT22;11136;48.778;9.126;2023-04-20T15:05:25;9.80;99.90
21944;DHT22;11136;48.778;9.126;2023-04-20T15:07:51;9.80;99.90
21944;DHT22;11136;48.778;9.126;2023-04-20T15:10:18;9.80;99.90
21944;DHT22;11136;48.778;9.126;2023-04-20T15:12:45;9.70;99.90
21944;DHT22;11136;48.778;9.126;2023-04-20T15:15:11;9.70;99.90
21944;DHT22;11136;48.778;9.126;2023-04-20T15:17:37;9.70;99.90
21944;DHT22;11136;48.778;9.126;2023-04-20T15:20:02;9.80;99.90
21944;DHT22;11136;48.778;9.126;2023-04-20T15:22:29;9.70;99.90
21944;DHT22;11136;48.778;9.126;2023-04-20T15:24:55;9.70;99.90
21944;DHT22;11136;48.778;9.126;2023-04-20T15:27:20;9.70;99.90
21944;DHT22;11136;48.778;9.126;2023-04-20T15:29:46;9.70;99.90
21944;DHT22;11136;48.778;9.126;2023-04-20T15:32:11;9.80;99.90
21944;DHT22;11136;48.778;9.126;2023-04-20T15:34:37;9.80;99.90
21944;DHT22;11136;48.778;9.126;2023-04-20T15:37:03;9.70;99.90
21944;DHT22;11136;48.778;9.126;2023-04-20T15:39:29;9.80;99.90
21944;DHT22;11136;48.778;9.126;2023-04-20T15:41:54;9.80;99.90